createdAt,value
2019-01-08T00:00:46.075Z,419.30
2019-01-08T00:01:46.079Z,419.80
2019-01-08T00:02:46.107Z,419.36
2019-01-08T00:03:46.087Z,419.95
2019-01-08T00:04:46.108Z,419.29
2019-01-08T00:05:46.041Z,419.32
2019-01-08T00:06:46.078Z,419.89
2019-01-08T00:07:46.015Z,419.58
2019-01-08T00:08:46.000Z,418.34
2019-01-08T00:09:46.011Z,415.82
2019-01-08T00:10:45.970Z,417.78
2019-01-08T00:11:45.948Z,418.62
2019-01-08T00:12:56.035Z,417.28
2019-01-08T00:13:54.685Z,419.45
2019-01-08T00:14:55.664Z,418.23
2019-01-08T00:15:54.168Z,419.84
2019-01-08T00:20:09.159Z,416.79
2019-01-08T00:21:09.497Z,419.93
2019-01-08T00:22:09.124Z,419.09
2019-01-08T00:23:09.013Z,419.31
2019-01-08T00:24:09.241Z,416.37
2019-01-08T00:25:08.961Z,419.29
2019-01-08T00:26:08.956Z,419.76
2019-01-08T00:27:08.931Z,418.75
2019-01-08T00:28:08.891Z,418.28
2019-01-08T00:29:08.918Z,416.54
2019-01-08T00:30:09.365Z,417.10
2019-01-08T00:31:08.891Z,419.55
2019-01-08T00:32:08.869Z,420.26
2019-01-08T00:33:17.958Z,419.82
2019-01-08T00:34:09.069Z,418.93
2019-01-08T00:35:08.897Z,419.63
2019-01-08T00:36:08.892Z,419.22
2019-01-08T00:37:08.943Z,418.87
2019-01-08T00:38:08.846Z,419.52
2019-01-08T00:39:08.827Z,417.65
2019-01-08T00:40:08.820Z,420.35
2019-01-08T00:41:08.769Z,419.20
2019-01-08T00:42:08.856Z,419.85
2019-01-08T00:43:08.758Z,419.33
2019-01-08T00:44:08.763Z,419.92
2019-01-08T00:45:08.760Z,419.70
2019-01-08T00:46:08.746Z,419.72
2019-01-08T00:47:08.725Z,420.15
2019-01-08T00:48:09.386Z,417.27
2019-01-08T00:49:08.753Z,419.51
2019-01-08T00:50:08.698Z,419.91
2019-01-08T00:51:08.704Z,416.78
2019-01-08T00:52:08.689Z,420.17
2019-01-08T00:53:08.651Z,419.80
2019-01-08T00:54:08.633Z,419.02
2019-01-08T00:55:09.363Z,419.31
2019-01-08T00:56:08.646Z,418.90
2019-01-08T00:57:08.621Z,418.25
2019-01-08T00:58:08.617Z,418.82
2019-01-08T00:59:17.262Z,419.49
2019-01-08T01:00:16.749Z,419.41
2019-01-08T01:01:15.718Z,417.91
2019-01-08T01:02:09.698Z,418.79
2019-01-08T01:05:29.956Z,415.30
2019-01-08T01:06:39.963Z,419.13
2019-01-08T01:07:38.789Z,418.82
2019-01-08T01:08:37.958Z,419.00
2019-01-08T01:09:38.042Z,416.63
2019-01-08T01:10:38.847Z,419.22
2019-01-08T01:11:38.872Z,419.49
2019-01-08T01:12:38.414Z,419.31
2019-01-08T01:13:38.660Z,419.21
2019-01-08T01:14:37.995Z,419.06
2019-01-08T01:15:37.433Z,418.66
2019-01-08T01:16:30.159Z,418.52
2019-01-08T01:17:29.739Z,417.34
2019-01-08T01:18:29.775Z,419.48
2019-01-08T01:19:29.675Z,418.59
2019-01-08T01:20:29.673Z,419.67
2019-01-08T01:21:29.673Z,419.23
2019-01-08T01:22:29.633Z,418.52
2019-01-08T01:23:29.631Z,419.54
2019-01-08T01:24:29.630Z,419.42
2019-01-08T01:25:29.626Z,416.26
2019-01-08T01:26:29.624Z,419.68
2019-01-08T01:27:29.591Z,419.71
2019-01-08T01:28:29.572Z,419.42
2019-01-08T01:29:29.550Z,419.28
2019-01-08T01:30:29.566Z,418.67
2019-01-08T01:31:29.564Z,418.62
2019-01-08T01:32:29.542Z,419.66
2019-01-08T01:33:29.536Z,418.76
2019-01-08T01:34:29.540Z,419.09
2019-01-08T01:35:29.547Z,419.30
2019-01-08T01:36:36.790Z,417.90
2019-01-08T01:37:37.994Z,418.31
2019-01-08T01:38:37.513Z,419.62
2019-01-08T01:39:37.499Z,419.27
2019-01-08T01:41:47.106Z,416.40
2019-01-08T01:44:10.693Z,418.30
2019-01-08T01:45:10.587Z,419.55
2019-01-08T01:46:10.583Z,418.63
2019-01-08T01:47:13.462Z,419.05
2019-01-08T01:48:12.576Z,417.30
2019-01-08T01:49:11.364Z,418.67
2019-01-08T01:50:11.144Z,419.22
2019-01-08T01:51:10.619Z,419.54
2019-01-08T01:52:10.653Z,419.23
2019-01-08T01:53:11.140Z,417.92
2019-01-08T01:54:10.540Z,417.79
2019-01-08T01:55:11.055Z,417.99
2019-01-08T01:56:10.645Z,419.40
2019-01-08T02:03:15.147Z,417.52
2019-01-08T02:04:25.342Z,418.56
2019-01-08T02:06:33.083Z,416.46
2019-01-08T02:07:42.079Z,418.89
2019-01-08T02:08:33.043Z,418.62
2019-01-08T02:09:41.381Z,418.64
2019-01-08T02:10:41.331Z,417.48
2019-01-08T02:12:50.610Z,416.30
2019-01-08T02:13:50.659Z,418.13
2019-01-08T02:14:50.550Z,418.12
2019-01-08T02:15:51.421Z,418.46
2019-01-08T02:16:50.623Z,416.82
2019-01-08T02:17:50.622Z,419.18
2019-01-08T02:18:50.651Z,418.53
2019-01-08T02:19:50.613Z,418.04
2019-01-08T02:20:50.556Z,418.01
2019-01-08T02:21:50.592Z,419.10
2019-01-08T02:22:50.558Z,418.43
2019-01-08T02:23:50.608Z,418.98
2019-01-08T02:24:50.627Z,419.11
2019-01-08T02:25:50.531Z,418.49
2019-01-08T02:26:50.500Z,418.68
2019-01-08T02:29:16.328Z,415.26
2019-01-08T02:30:09.158Z,418.75
2019-01-08T02:31:08.174Z,416.63
2019-01-08T02:32:08.053Z,418.64
2019-01-08T02:33:08.962Z,418.80
2019-01-08T02:34:08.060Z,418.53
2019-01-08T02:35:08.124Z,418.47
2019-01-08T02:36:08.043Z,418.31
2019-01-08T02:37:08.008Z,418.51
2019-01-08T02:38:08.143Z,418.84
2019-01-08T02:39:07.981Z,418.34
2019-01-08T02:40:08.090Z,419.42
2019-01-08T02:41:09.959Z,418.85
2019-01-08T02:42:09.974Z,418.42
2019-01-08T02:43:07.906Z,418.46
2019-01-08T02:44:08.111Z,418.49
2019-01-08T02:45:07.928Z,418.22
2019-01-08T02:46:08.129Z,418.08
2019-01-08T02:47:15.912Z,418.34
2019-01-08T02:48:07.873Z,418.25
2019-01-08T02:49:07.955Z,418.48
2019-01-08T02:50:07.859Z,418.59
2019-01-08T02:51:07.823Z,418.41
2019-01-08T02:52:07.871Z,417.26
2019-01-08T02:53:07.896Z,416.38
2019-01-08T02:54:07.786Z,417.24
2019-01-08T02:55:07.833Z,418.93
2019-01-08T02:56:07.800Z,416.73
2019-01-08T02:57:07.822Z,418.76
2019-01-08T02:58:07.824Z,418.55
2019-01-08T02:59:07.815Z,418.67
2019-01-08T03:00:07.731Z,418.17
2019-01-08T03:01:07.783Z,418.71
2019-01-08T03:02:07.809Z,419.26
2019-01-08T03:03:07.728Z,418.62
2019-01-08T03:04:07.734Z,416.93
2019-01-08T03:05:07.753Z,418.45
2019-01-08T03:06:07.691Z,418.11
2019-01-08T03:07:07.705Z,418.33
2019-01-08T03:08:07.662Z,418.58
2019-01-08T03:09:07.686Z,417.27
2019-01-08T03:10:15.645Z,418.74
2019-01-08T03:11:18.445Z,418.42
2019-01-08T03:13:24.504Z,416.35
2019-01-08T03:14:33.504Z,418.90
2019-01-08T03:15:33.078Z,415.82
2019-01-08T03:16:32.537Z,415.87
2019-01-08T03:17:32.520Z,416.35
2019-01-08T03:18:24.465Z,416.05
2019-01-08T03:19:24.435Z,419.48
2019-01-08T03:20:25.083Z,416.85
2019-01-08T03:21:25.426Z,417.81
2019-01-08T03:22:24.554Z,419.01
2019-01-08T03:23:24.397Z,416.46
2019-01-08T03:24:24.401Z,416.60
2019-01-08T03:25:24.392Z,419.24
2019-01-08T03:26:25.255Z,417.71
2019-01-08T03:27:25.221Z,418.46
2019-01-08T03:28:24.368Z,417.16
2019-01-08T03:29:33.318Z,416.47
2019-01-08T03:31:46.223Z,417.21
2019-01-08T03:32:46.840Z,417.80
2019-01-08T03:33:46.168Z,418.32
2019-01-08T03:34:46.176Z,417.34
2019-01-08T03:35:46.947Z,417.36
2019-01-08T03:36:46.178Z,417.95
2019-01-08T03:37:46.426Z,417.14
2019-01-08T03:38:47.846Z,419.02
2019-01-08T03:39:46.193Z,419.02
2019-01-08T03:40:46.213Z,416.46
2019-01-08T03:41:46.147Z,416.37
2019-01-08T03:42:46.279Z,419.07
2019-01-08T03:43:46.168Z,419.48
2019-01-08T03:44:46.252Z,417.83
2019-01-08T03:45:46.148Z,416.38
2019-01-08T03:46:47.105Z,418.09
2019-01-08T03:47:46.085Z,419.69
2019-01-08T03:48:46.154Z,419.65
2019-01-08T03:49:46.155Z,416.50
2019-01-08T03:50:46.193Z,417.38
2019-01-08T03:51:46.114Z,417.61
2019-01-08T03:54:04.643Z,414.14
2019-01-08T03:55:04.629Z,419.22
2019-01-08T03:56:07.430Z,418.60
2019-01-08T03:57:04.731Z,418.36
2019-01-08T03:58:04.904Z,418.56
2019-01-08T03:59:04.638Z,418.27
2019-01-08T04:00:04.695Z,415.37
2019-01-08T04:01:04.569Z,417.45
2019-01-08T04:02:05.538Z,418.97
2019-01-08T04:03:05.467Z,418.97
2019-01-08T04:04:04.526Z,416.12
2019-01-08T04:05:04.665Z,416.50
2019-01-08T04:06:04.526Z,418.86
2019-01-08T04:07:04.527Z,418.62
2019-01-08T04:08:04.544Z,418.34
2019-01-08T04:09:04.792Z,418.90
2019-01-08T04:10:04.526Z,417.07
2019-01-08T04:11:04.521Z,416.53
2019-01-08T04:12:05.453Z,418.42
2019-01-08T04:13:04.485Z,416.12
2019-01-08T04:14:04.463Z,417.78
2019-01-08T04:15:04.388Z,418.83
2019-01-08T04:16:04.429Z,417.43
2019-01-08T04:17:04.446Z,418.66
2019-01-08T04:18:04.420Z,418.06
2019-01-08T04:19:04.373Z,418.15
2019-01-08T04:20:04.361Z,418.15
2019-01-08T04:21:04.341Z,417.82
2019-01-08T04:22:12.309Z,416.13
2019-01-08T04:23:04.318Z,418.37
2019-01-08T04:24:04.957Z,419.26
2019-01-08T04:25:05.034Z,418.59
2019-01-08T04:26:04.255Z,419.01
2019-01-08T04:27:04.324Z,418.98
2019-01-08T04:28:04.356Z,417.80
2019-01-08T04:29:04.251Z,418.15
2019-01-08T04:30:04.296Z,417.25
2019-01-08T04:31:04.328Z,419.17
2019-01-08T04:32:04.287Z,418.63
2019-01-08T04:33:04.309Z,417.16
2019-01-08T04:34:04.300Z,416.57
2019-01-08T04:35:05.033Z,419.17
2019-01-08T04:36:04.202Z,419.79
2019-01-08T04:37:05.015Z,417.35
2019-01-08T04:38:04.275Z,418.31
2019-01-08T04:39:04.242Z,418.48
2019-01-08T04:40:04.202Z,418.62
2019-01-08T04:41:04.151Z,418.42
2019-01-08T04:42:04.163Z,419.56
2019-01-08T04:43:04.155Z,416.94
2019-01-08T04:44:04.246Z,419.39
2019-01-08T04:45:11.966Z,419.81
2019-01-08T04:48:31.615Z,417.08
2019-01-08T04:49:41.632Z,419.06
2019-01-08T04:50:40.149Z,418.07
2019-01-08T04:51:31.602Z,417.10
2019-01-08T04:52:40.160Z,419.21
2019-01-08T04:55:03.421Z,418.85
2019-01-08T04:59:58.894Z,419.32
2019-01-08T05:01:03.280Z,417.63
2019-01-08T05:02:02.352Z,417.60
2019-01-08T05:03:05.290Z,419.96
2019-01-08T05:04:04.293Z,420.26
2019-01-08T05:05:02.300Z,420.47
2019-01-08T05:06:02.310Z,421.05
2019-01-08T05:07:01.854Z,421.05
2019-01-08T05:08:02.356Z,420.13
2019-01-08T05:08:53.319Z,421.15
2019-01-08T05:09:53.248Z,420.66
2019-01-08T05:10:53.478Z,420.76
2019-01-08T05:11:53.211Z,419.15
2019-01-08T05:12:53.368Z,421.03
2019-01-08T05:13:53.296Z,420.78
2019-01-08T05:14:53.942Z,421.34
2019-01-08T05:15:53.288Z,421.01
2019-01-08T05:16:53.206Z,421.64
2019-01-08T05:18:03.541Z,420.11
2019-01-08T05:19:02.284Z,420.26
2019-01-08T05:20:04.703Z,420.29
2019-01-08T05:22:35.579Z,420.58
2019-01-08T05:23:35.639Z,419.48
2019-01-08T05:24:35.615Z,421.65
2019-01-08T05:25:35.562Z,420.96
2019-01-08T05:26:35.531Z,420.83
2019-01-08T05:27:35.610Z,421.73
2019-01-08T05:28:35.628Z,421.55
2019-01-08T05:29:35.614Z,421.93
2019-01-08T05:30:35.551Z,421.05
2019-01-08T05:31:38.101Z,421.99
2019-01-08T05:32:35.479Z,421.91
2019-01-08T05:33:35.521Z,421.76
2019-01-08T05:34:35.421Z,418.50
2019-01-08T05:35:35.535Z,421.59
2019-01-08T05:36:35.435Z,421.15
2019-01-08T05:37:36.069Z,420.54
2019-01-08T05:38:35.428Z,421.45
2019-01-08T05:39:35.439Z,422.83
2019-01-08T05:40:35.396Z,421.30
2019-01-08T05:41:35.439Z,422.95
2019-01-08T05:42:35.332Z,422.00
2019-01-08T05:43:36.574Z,421.93
2019-01-08T05:44:35.340Z,423.10
2019-01-08T05:45:35.307Z,423.10
2019-01-08T05:46:36.090Z,422.64
2019-01-08T05:47:35.281Z,422.71
2019-01-08T05:48:35.668Z,422.70
2019-01-08T05:49:35.461Z,421.50
2019-01-08T05:50:35.245Z,421.26
2019-01-08T05:51:35.300Z,421.67
2019-01-08T05:52:35.329Z,422.09
2019-01-08T05:53:35.277Z,422.50
2019-01-08T05:55:57.814Z,422.50
2019-01-08T05:56:58.289Z,422.31
2019-01-08T05:57:58.023Z,421.09
2019-01-08T05:58:58.749Z,422.35
2019-01-08T05:59:57.798Z,422.80
2019-01-08T06:00:58.795Z,422.91
2019-01-08T06:01:58.783Z,421.74
2019-01-08T06:02:57.696Z,421.80
2019-01-08T06:03:57.744Z,422.69
2019-01-08T06:04:57.707Z,422.22
2019-01-08T06:05:58.256Z,422.78
2019-01-08T06:06:57.806Z,422.65
2019-01-08T06:08:05.744Z,421.08
2019-01-08T06:09:06.757Z,421.62
2019-01-08T06:10:05.257Z,422.15
2019-01-08T06:10:57.787Z,422.03
2019-01-08T06:11:57.662Z,422.77
2019-01-08T06:13:07.271Z,422.73
2019-01-08T06:13:57.692Z,422.48
2019-01-08T06:14:57.686Z,422.24
2019-01-08T06:15:57.639Z,422.64
2019-01-08T06:16:57.679Z,422.70
2019-01-08T06:18:04.688Z,422.87
2019-01-08T06:18:57.887Z,421.32
2019-01-08T06:19:57.773Z,421.34
2019-01-08T06:20:57.579Z,422.52
2019-01-08T06:21:57.643Z,423.65
2019-01-08T06:22:57.554Z,420.30
2019-01-08T06:23:57.499Z,422.49
2019-01-08T06:24:57.490Z,421.84
2019-01-08T06:25:57.585Z,422.59
2019-01-08T06:26:58.369Z,421.97
2019-01-08T06:27:57.555Z,423.49
2019-01-08T06:28:57.476Z,423.17
2019-01-08T06:29:57.444Z,422.76
2019-01-08T06:30:57.429Z,422.42
2019-01-08T06:31:57.470Z,423.07
2019-01-08T06:32:57.423Z,423.05
2019-01-08T06:33:57.436Z,423.29
2019-01-08T06:34:57.397Z,423.85
2019-01-08T06:35:57.409Z,423.52
2019-01-08T06:36:57.437Z,422.32
2019-01-08T06:37:57.327Z,423.60
2019-01-08T06:38:57.386Z,423.55
2019-01-08T06:39:57.367Z,423.02
2019-01-08T06:40:57.960Z,423.49
2019-01-08T06:41:57.297Z,423.79
2019-01-08T06:42:57.279Z,424.17
2019-01-08T06:43:57.267Z,423.93
2019-01-08T06:44:57.817Z,422.84
2019-01-08T06:47:13.860Z,420.78
2019-01-08T06:48:13.886Z,421.43
2019-01-08T06:49:13.971Z,423.95
2019-01-08T06:50:13.939Z,424.38
2019-01-08T06:51:13.784Z,422.72
2019-01-08T06:52:14.794Z,424.14
2019-01-08T06:53:13.999Z,424.49
2019-01-08T06:54:13.834Z,422.09
2019-01-08T06:55:13.849Z,424.05
2019-01-08T06:56:14.754Z,423.37
2019-01-08T06:57:14.695Z,424.20
2019-01-08T06:58:13.729Z,421.47
2019-01-08T06:59:14.856Z,423.17
2019-01-08T07:00:13.813Z,424.14
2019-01-08T07:02:31.464Z,418.95
2019-01-08T07:03:34.532Z,423.16
2019-01-08T07:04:31.447Z,423.44
2019-01-08T07:05:31.379Z,423.35
2019-01-08T07:06:31.213Z,423.25
2019-01-08T07:09:55.257Z,423.34
2019-01-08T07:10:55.109Z,422.49
2019-01-08T07:11:55.004Z,423.79
2019-01-08T07:12:54.990Z,423.18
2019-01-08T07:13:54.956Z,423.75
2019-01-08T07:14:55.110Z,423.61
2019-01-08T07:15:55.017Z,424.07
2019-01-08T07:16:55.872Z,423.83
2019-01-08T07:17:55.103Z,423.73
2019-01-08T07:18:57.878Z,423.44
2019-01-08T07:19:55.888Z,423.37
2019-01-08T07:20:55.796Z,424.38
2019-01-08T07:21:55.107Z,424.59
2019-01-08T07:22:54.918Z,424.06
2019-01-08T07:23:54.949Z,424.02
2019-01-08T07:24:54.882Z,424.11
2019-01-08T07:27:55.858Z,423.73
2019-01-08T07:28:57.110Z,423.38
2019-01-08T07:29:55.662Z,423.66
2019-01-08T07:30:56.366Z,423.27
2019-01-08T07:31:55.777Z,422.50
2019-01-08T07:32:55.481Z,424.13
2019-01-08T07:33:57.228Z,424.22
2019-01-08T07:34:55.432Z,424.38
2019-01-08T07:35:55.432Z,423.78
2019-01-08T07:36:55.390Z,424.52
2019-01-08T07:37:55.409Z,424.60
2019-01-08T07:38:55.395Z,427.12
2019-01-08T07:39:55.417Z,424.89
2019-01-08T07:40:55.381Z,423.67
2019-01-08T07:41:55.371Z,425.14
2019-01-08T07:42:55.321Z,424.64
2019-01-08T07:43:55.616Z,423.30
2019-01-08T07:45:02.882Z,424.39
2019-01-08T07:45:55.289Z,425.14
2019-01-08T07:46:55.303Z,424.14
2019-01-08T07:47:55.287Z,423.10
2019-01-08T07:48:55.262Z,425.74
2019-01-08T07:49:55.270Z,424.38
2019-01-08T07:50:55.272Z,423.37
2019-01-08T07:51:55.227Z,424.16
2019-01-08T07:52:55.214Z,424.55
2019-01-08T07:53:55.224Z,425.05
2019-01-08T07:54:55.220Z,425.17
2019-01-08T07:55:55.194Z,425.05
2019-01-08T07:56:55.193Z,425.65
2019-01-08T07:57:55.184Z,424.38
2019-01-08T07:58:55.836Z,425.07
2019-01-08T07:59:55.174Z,425.84
2019-01-08T08:00:55.195Z,426.11
2019-01-08T08:01:55.136Z,425.29
2019-01-08T08:02:55.140Z,424.42
2019-01-08T08:03:55.137Z,426.50
2019-01-08T08:04:55.155Z,426.20
2019-01-08T08:05:55.114Z,424.79
2019-01-08T08:06:55.091Z,424.81
2019-01-08T08:07:55.077Z,423.93
2019-01-08T08:08:55.075Z,426.10
2019-01-08T08:09:55.115Z,426.35
2019-01-08T08:10:55.031Z,425.05
2019-01-08T08:11:55.029Z,425.38
2019-01-08T08:12:55.025Z,424.58
2019-01-08T08:13:55.013Z,425.70
2019-01-08T08:14:55.014Z,426.12
2019-01-08T08:15:55.002Z,425.33
2019-01-08T08:16:54.972Z,425.44
2019-01-08T08:17:54.979Z,425.22
2019-01-08T08:18:54.964Z,425.20
2019-01-08T08:19:54.972Z,425.66
2019-01-08T08:20:54.931Z,424.75
2019-01-08T08:21:54.913Z,424.99
2019-01-08T08:22:54.907Z,424.29
2019-01-08T08:23:56.878Z,426.36
2019-01-08T08:24:55.892Z,425.42
2019-01-08T08:25:54.904Z,425.96
2019-01-08T08:26:54.895Z,424.08
2019-01-08T08:27:54.842Z,426.92
2019-01-08T08:28:55.849Z,425.63
2019-01-08T08:29:54.858Z,424.25
2019-01-08T08:30:58.906Z,425.62
2019-01-08T08:31:54.830Z,426.03
2019-01-08T08:32:54.820Z,425.82
2019-01-08T08:33:54.781Z,425.56
2019-01-08T08:34:54.841Z,426.40
2019-01-08T08:35:54.843Z,426.59
2019-01-08T08:36:54.859Z,426.19
2019-01-08T08:37:54.784Z,426.82
2019-01-08T08:38:54.753Z,425.22
2019-01-08T08:40:02.808Z,426.55
2019-01-08T08:41:02.776Z,425.49
2019-01-08T08:41:54.707Z,426.05
2019-01-08T08:43:02.809Z,426.08
2019-01-08T08:44:02.747Z,426.17
2019-01-08T08:49:35.273Z,423.88
2019-01-08T08:50:43.335Z,426.18
2019-01-08T08:51:42.204Z,426.45
2019-01-08T08:52:42.216Z,425.82
2019-01-08T08:53:42.209Z,426.01
2019-01-08T08:54:42.219Z,426.78
2019-01-08T08:55:35.156Z,426.54
2019-01-08T08:56:35.177Z,425.39
2019-01-08T08:57:35.119Z,426.51
2019-01-08T08:58:35.089Z,426.30
2019-01-08T08:59:35.066Z,426.36
2019-01-08T09:00:35.074Z,426.43
2019-01-08T09:01:35.050Z,426.76
2019-01-08T09:02:35.055Z,425.83
2019-01-08T09:03:35.044Z,425.36
2019-01-08T09:04:35.020Z,425.53
2019-01-08T09:05:35.018Z,426.81
2019-01-08T09:06:35.685Z,425.55
2019-01-08T09:07:42.088Z,425.80
2019-01-08T09:08:34.978Z,426.97
2019-01-08T09:09:34.992Z,426.98
2019-01-08T09:10:34.962Z,426.30
2019-01-08T09:11:34.943Z,426.59
2019-01-08T09:12:34.931Z,425.32
2019-01-08T09:13:34.936Z,424.99
2019-01-08T09:14:34.915Z,426.16
2019-01-08T09:15:34.935Z,426.05
2019-01-08T09:16:34.883Z,425.09
2019-01-08T09:17:34.890Z,427.05
2019-01-08T09:18:34.886Z,425.41
2019-01-08T09:19:34.878Z,426.40
2019-01-08T09:20:34.891Z,422.84
2019-01-08T09:21:34.908Z,425.42
2019-01-08T09:22:34.837Z,424.75
2019-01-08T09:23:34.831Z,426.89
2019-01-08T09:24:34.806Z,425.56
2019-01-08T09:25:35.696Z,426.59
2019-01-08T09:26:34.809Z,425.05
2019-01-08T09:27:34.788Z,426.62
2019-01-08T09:28:34.770Z,425.73
2019-01-08T09:29:34.750Z,426.07
2019-01-08T09:30:34.767Z,426.93
2019-01-08T09:31:34.758Z,425.38
2019-01-08T09:32:34.728Z,425.84
2019-01-08T09:33:34.729Z,425.67
2019-01-08T09:34:34.734Z,425.53
2019-01-08T09:35:34.712Z,426.69
2019-01-08T09:36:34.679Z,426.27
2019-01-08T09:37:34.679Z,426.12
2019-01-08T09:38:34.662Z,426.10
2019-01-08T09:39:34.670Z,426.00
2019-01-08T09:40:34.643Z,426.85
2019-01-08T09:41:34.617Z,425.34
2019-01-08T09:42:34.612Z,426.13
2019-01-08T09:43:34.627Z,426.16
2019-01-08T09:44:34.594Z,426.02
2019-01-08T09:45:34.606Z,426.12
2019-01-08T09:46:34.577Z,425.45
2019-01-08T09:47:34.560Z,425.43
2019-01-08T09:48:34.558Z,425.97
2019-01-08T09:49:34.552Z,425.94
2019-01-08T09:50:34.561Z,424.38
2019-01-08T09:51:34.535Z,426.32
2019-01-08T09:52:34.518Z,425.54
2019-01-08T09:53:34.504Z,424.95
2019-01-08T09:54:34.492Z,425.55
2019-01-08T09:55:34.498Z,426.73
2019-01-08T09:56:34.468Z,426.39
2019-01-08T09:57:34.465Z,426.26
2019-01-08T09:58:34.445Z,427.06
2019-01-08T09:59:35.557Z,426.07
2019-01-08T10:00:34.455Z,425.89
2019-01-08T10:01:34.429Z,426.39
2019-01-08T10:02:34.412Z,425.68
2019-01-08T10:03:34.406Z,425.11
2019-01-08T10:04:34.378Z,426.81
2019-01-08T10:05:34.375Z,425.10
2019-01-08T10:06:34.385Z,426.64
2019-01-08T10:07:34.351Z,425.03
2019-01-08T10:08:34.343Z,425.18
2019-01-08T10:09:34.324Z,425.60
2019-01-08T10:10:34.319Z,426.08
2019-01-08T10:11:34.335Z,423.69
2019-01-08T10:12:34.322Z,425.34
2019-01-08T10:13:34.285Z,426.06
2019-01-08T10:14:34.277Z,425.74
2019-01-08T10:15:34.268Z,426.72
2019-01-08T10:16:34.745Z,425.31
2019-01-08T10:17:35.196Z,426.68
2019-01-08T10:18:34.255Z,426.67
2019-01-08T10:19:34.266Z,425.79
2019-01-08T10:20:34.242Z,426.17
2019-01-08T10:21:34.237Z,424.13
2019-01-08T10:22:34.217Z,425.73
2019-01-08T10:23:34.695Z,425.90
2019-01-08T10:24:34.209Z,426.19
2019-01-08T10:25:34.172Z,425.46
2019-01-08T10:26:34.209Z,424.44
2019-01-08T10:27:34.155Z,426.28
2019-01-08T10:28:34.137Z,425.79
2019-01-08T10:29:34.121Z,426.90
2019-01-08T10:30:34.131Z,425.25
2019-01-08T10:31:34.147Z,425.58
2019-01-08T10:32:34.135Z,426.36
2019-01-08T10:33:34.097Z,425.34
2019-01-08T10:34:34.100Z,425.05
2019-01-08T10:35:34.070Z,425.27
2019-01-08T10:36:34.066Z,425.26
2019-01-08T10:37:34.073Z,425.06
2019-01-08T10:38:34.065Z,425.62
2019-01-08T10:39:34.049Z,426.80
2019-01-08T10:40:34.032Z,425.48
2019-01-08T10:41:34.041Z,424.96
2019-01-08T10:42:34.016Z,423.71
2019-01-08T10:43:34.027Z,426.49
2019-01-08T10:44:34.012Z,426.20
2019-01-08T10:45:34.559Z,425.70
2019-01-08T10:46:37.553Z,425.74
2019-01-08T10:47:33.953Z,426.98
2019-01-08T10:48:33.939Z,425.97
2019-01-08T10:49:33.916Z,425.90
2019-01-08T10:50:33.896Z,426.34
2019-01-08T10:51:33.919Z,423.25
2019-01-08T10:52:33.890Z,426.33
2019-01-08T10:53:33.872Z,425.03
2019-01-08T10:54:33.873Z,422.92
2019-01-08T10:55:33.871Z,426.05
2019-01-08T10:56:33.847Z,425.93
2019-01-08T10:57:33.828Z,425.23
2019-01-08T10:58:33.830Z,425.05
2019-01-08T10:59:33.854Z,424.21
2019-01-08T11:00:33.842Z,426.16
2019-01-08T11:01:40.472Z,423.30
2019-01-08T11:02:34.781Z,426.36
2019-01-08T11:03:33.782Z,425.52
2019-01-08T11:04:33.777Z,426.08
2019-01-08T11:05:33.765Z,423.92
2019-01-08T11:06:33.784Z,425.55
2019-01-08T11:07:33.731Z,425.79
2019-01-08T11:08:33.716Z,426.06
2019-01-08T11:09:33.740Z,422.95
2019-01-08T11:10:33.726Z,424.40
2019-01-08T11:11:34.450Z,426.44
2019-01-08T11:12:33.676Z,423.80
2019-01-08T11:13:33.656Z,424.80
2019-01-08T11:14:33.680Z,425.08
2019-01-08T11:15:33.648Z,425.38
2019-01-08T11:16:33.749Z,424.65
2019-01-08T11:17:33.648Z,424.26
2019-01-08T11:18:33.628Z,423.96
2019-01-08T11:19:33.603Z,424.35
2019-01-08T11:20:33.599Z,424.15
2019-01-08T11:21:33.600Z,423.37
2019-01-08T11:22:33.576Z,424.25
2019-01-08T11:23:33.565Z,424.45
2019-01-08T11:24:33.587Z,424.00
2019-01-08T11:25:33.543Z,425.87
2019-01-08T11:26:33.544Z,424.46
2019-01-08T11:27:33.535Z,425.50
2019-01-08T11:28:33.544Z,424.35
2019-01-08T11:29:33.524Z,423.58
2019-01-08T11:30:33.495Z,424.41
2019-01-08T11:31:33.504Z,424.16
2019-01-08T11:32:33.471Z,425.94
2019-01-08T11:33:33.473Z,425.02
2019-01-08T11:34:33.452Z,422.88
2019-01-08T11:35:33.489Z,424.95
2019-01-08T11:36:33.467Z,423.54
2019-01-08T11:37:33.432Z,425.85
2019-01-08T11:38:33.413Z,425.68
2019-01-08T11:39:33.399Z,424.14
2019-01-08T11:40:33.387Z,425.43
2019-01-08T11:41:33.407Z,424.41
2019-01-08T11:42:33.349Z,425.27
2019-01-08T11:43:33.355Z,425.14
2019-01-08T11:44:33.337Z,424.91
2019-01-08T11:45:33.333Z,426.66
2019-01-08T11:46:33.408Z,423.94
2019-01-08T11:47:33.304Z,423.48
2019-01-08T11:48:33.292Z,423.42
2019-01-08T11:49:33.279Z,423.77
2019-01-08T11:50:33.267Z,424.82
2019-01-08T11:51:33.284Z,423.19
2019-01-08T11:52:33.291Z,424.94
2019-01-08T11:53:33.238Z,424.00
2019-01-08T11:54:40.619Z,424.27
2019-01-08T11:55:34.220Z,424.50
2019-01-08T11:56:33.234Z,424.27
2019-01-08T11:57:33.211Z,423.68
2019-01-08T11:58:33.212Z,423.92
2019-01-08T11:59:33.181Z,421.97
2019-01-08T12:00:33.159Z,424.38
2019-01-08T12:01:33.165Z,423.05
2019-01-08T12:02:47.622Z,423.49
2019-01-08T12:03:34.148Z,423.53
2019-01-08T12:04:33.135Z,425.22
2019-01-08T12:05:33.130Z,423.81
2019-01-08T12:06:33.139Z,424.71
2019-01-08T12:07:33.081Z,423.86
2019-01-08T12:08:33.092Z,423.38
2019-01-08T12:09:33.155Z,425.39
2019-01-08T12:10:33.081Z,422.59
2019-01-08T12:11:33.096Z,423.92
2019-01-08T12:12:33.089Z,424.23
2019-01-08T12:13:33.066Z,423.51
2019-01-08T12:14:33.023Z,422.53
2019-01-08T12:15:33.031Z,421.19
2019-01-08T12:16:33.029Z,422.64
2019-01-08T12:17:33.014Z,424.09
2019-01-08T12:18:32.992Z,423.63
2019-01-08T12:19:32.983Z,423.42
2019-01-08T12:20:32.952Z,424.48
2019-01-08T12:21:32.968Z,424.08
2019-01-08T12:22:40.624Z,421.43
2019-01-08T12:23:33.943Z,424.55
2019-01-08T12:24:32.914Z,424.53
2019-01-08T12:25:32.893Z,423.94
2019-01-08T12:26:32.890Z,422.84
2019-01-08T12:27:32.915Z,422.74
2019-01-08T12:28:32.890Z,424.17
2019-01-08T12:29:32.883Z,423.15
2019-01-08T12:30:32.853Z,423.06
2019-01-08T12:31:32.880Z,422.34
2019-01-08T12:32:40.972Z,421.05
2019-01-08T12:33:32.821Z,424.77
2019-01-08T12:34:32.821Z,423.40
2019-01-08T12:35:32.820Z,423.00
2019-01-08T12:36:39.836Z,422.60
2019-01-08T12:37:32.809Z,422.66
2019-01-08T12:38:32.773Z,422.12
2019-01-08T12:39:32.752Z,422.65
2019-01-08T12:40:32.747Z,423.54
2019-01-08T12:41:32.734Z,423.38
2019-01-08T12:42:32.738Z,422.48
2019-01-08T12:43:32.710Z,425.64
2019-01-08T12:44:33.282Z,424.34
2019-01-08T12:45:32.682Z,422.92
2019-01-08T12:46:32.684Z,423.76
2019-01-08T12:47:32.689Z,424.02
2019-01-08T12:48:32.646Z,424.89
2019-01-08T12:49:32.643Z,423.05
2019-01-08T12:50:32.636Z,422.84
2019-01-08T12:51:32.620Z,422.72
2019-01-08T12:52:32.644Z,421.16
2019-01-08T12:53:32.613Z,421.83
2019-01-08T12:54:32.604Z,422.15
2019-01-08T12:55:32.581Z,422.24
2019-01-08T12:56:32.575Z,421.98
2019-01-08T12:57:32.583Z,423.10
2019-01-08T12:58:32.568Z,423.52
2019-01-08T12:59:32.540Z,422.08
2019-01-08T13:00:32.536Z,422.87
2019-01-08T13:01:32.509Z,423.54
2019-01-08T13:02:32.526Z,422.88
2019-01-08T13:03:32.492Z,423.18
2019-01-08T13:04:32.492Z,423.14
2019-01-08T13:05:32.465Z,423.17
2019-01-08T13:06:32.454Z,422.08
2019-01-08T13:07:32.460Z,421.52
2019-01-08T13:08:32.441Z,423.38
2019-01-08T13:09:32.443Z,421.99
2019-01-08T13:10:32.431Z,420.71
2019-01-08T13:11:32.412Z,422.08
2019-01-08T13:12:32.433Z,422.17
2019-01-08T13:13:32.384Z,420.81